Time;durP1;ratioP1;P1;durP2;ratioP2;P2;SDS_P1;SDS_P2;PMS_P1;PMS_P2;Temp;Humidity;BMP_temperature;BMP_pressure;BME280_temperature;BME280_humidity;BME280_pressure;Samples;Min_cycle;Max_cycle;Signal;HPM_P1;HPM_P2
2022/04/21 00:00:16;;;;;;;15.93;6.40;;;17.00;78.90;;;;;;5037154;28;20112;-69
2022/04/21 00:02:42;;;;;;;14.93;6.80;;;17.00;78.60;;;;;;5036956;28;20033;-70
2022/04/21 00:05:09;;;;;;;13.07;6.50;;;16.90;78.60;;;;;;5036715;28;20014;-69
2022/04/21 00:07:35;;;;;;;14.25;7.07;;;16.90;78.60;;;;;;5052005;28;20030;-69
2022/04/21 00:10:03;;;;;;;14.90;6.82;;;16.90;78.50;;;;;;5036703;28;20028;-70
2022/04/21 00:12:28;;;;;;;15.35;6.65;;;17.00;78.70;;;;;;5036598;28;20029;-69
2022/04/21 00:14:54;;;;;;;12.07;6.60;;;16.90;78.80;;;;;;5036312;28;20101;-69
2022/04/21 00:17:22;;;;;;;15.95;7.45;;;17.00;79.00;;;;;;5036532;28;20033;-69
2022/04/21 00:19:48;;;;;;;17.13;7.45;;;17.00;79.40;;;;;;5036617;28;20057;-70
2022/04/21 00:24:58;;;;;;;16.23;7.88;;;16.90;80.40;;;;;;5036420;28;20041;-69
2022/04/21 00:27:24;;;;;;;18.70;8.02;;;17.00;80.70;;;;;;5036415;28;20026;-70
2022/04/21 00:29:49;;;;;;;17.25;7.72;;;17.00;81.40;;;;;;5036633;28;20026;-70
2022/04/21 00:32:15;;;;;;;13.77;8.18;;;17.00;81.60;;;;;;5036096;28;20033;-68
2022/04/21 00:34:41;;;;;;;18.60;9.25;;;17.00;82.20;;;;;;5036191;28;20028;-68
2022/04/21 00:37:07;;;;;;;17.73;9.30;;;17.00;83.00;;;;;;5036101;28;20105;-69
2022/04/21 00:39:32;;;;;;;16.42;9.20;;;17.00;83.00;;;;;;5036199;28;20049;-69
2022/04/21 00:41:59;;;;;;;20.88;9.52;;;17.00;83.40;;;;;;5036143;28;20026;-69
2022/04/21 00:44:25;;;;;;;21.38;9.70;;;17.00;83.70;;;;;;5035856;28;20447;-69
2022/04/21 00:46:52;;;;;;;19.55;9.45;;;17.10;83.90;;;;;;5018155;28;20065;-69
2022/04/21 00:49:21;;;;;;;16.73;9.65;;;17.10;83.90;;;;;;5036006;28;20022;-69
2022/04/21 00:51:48;;;;;;;18.00;8.93;;;17.10;83.90;;;;;;5035912;28;20120;-70
2022/04/21 00:54:14;;;;;;;15.10;8.93;;;17.00;83.80;;;;;;5036226;28;20513;-69
2022/04/21 00:56:41;;;;;;;15.45;8.77;;;17.00;84.40;;;;;;5035980;28;20057;-70
2022/04/21 00:59:09;;;;;;;17.25;8.90;;;17.00;84.50;;;;;;5035821;28;20033;-69
2022/04/21 01:04:21;;;;;;;18.20;8.88;;;17.00;84.50;;;;;;5035949;28;20470;-68
2022/04/21 01:06:47;;;;;;;14.80;8.45;;;17.10;83.70;;;;;;5035773;28;20463;-71
2022/04/21 01:09:12;;;;;;;17.48;8.95;;;17.10;83.40;;;;;;5035443;28;20025;-68
2022/04/21 01:11:39;;;;;;;14.45;7.88;;;17.10;82.90;;;;;;5035464;28;20513;-68
2022/04/21 01:14:05;;;;;;;15.02;7.28;;;17.10;82.70;;;;;;5035374;28;20032;-69
2022/04/21 01:16:30;;;;;;;13.77;7.35;;;17.10;82.20;;;;;;5036020;28;20467;-69
2022/04/21 01:18:56;;;;;;;12.05;7.35;;;17.00;81.80;;;;;;5039075;28;20026;-69
2022/04/21 01:21:22;;;;;;;10.63;7.20;;;17.00;81.50;;;;;;5038286;28;20075;-70
2022/04/21 01:23:48;;;;;;;13.68;7.00;;;17.10;81.10;;;;;;5035259;28;20026;-70
2022/04/21 01:26:16;;;;;;;19.02;7.28;;;17.10;80.50;;;;;;5017480;28;20033;-68
2022/04/21 01:28:45;;;;;;;12.25;6.50;;;17.10;80.60;;;;;;5017504;28;20021;-69
2022/04/21 01:31:11;;;;;;;16.05;6.68;;;17.10;80.50;;;;;;5035252;28;20025;-70
2022/04/21 01:33:37;;;;;;;11.15;6.47;;;17.10;80.20;;;;;;5035096;28;20035;-69
2022/04/21 01:36:05;;;;;;;11.40;6.50;;;17.20;80.00;;;;;;5035268;28;20021;-69
2022/04/21 01:41:15;;;;;;;14.77;5.95;;;17.20;79.80;;;;;;5035243;28;20040;-69
2022/04/21 01:43:43;;;;;;;11.52;5.88;;;17.20;79.00;;;;;;5035293;28;20365;-70
2022/04/21 01:46:09;;;;;;;10.75;6.18;;;17.20;78.70;;;;;;5034573;28;20053;-70
2022/04/21 01:48:35;;;;;;;10.98;6.00;;;17.20;78.30;;;;;;5034669;28;20103;-69
2022/04/21 01:51:02;;;;;;;10.93;5.38;;;17.20;78.10;;;;;;5034893;28;20048;-69
2022/04/21 01:53:27;;;;;;;12.65;5.90;;;17.20;77.60;;;;;;5034802;28;20032;-69
2022/04/21 01:55:53;;;;;;;11.18;5.20;;;17.20;77.30;;;;;;5034732;28;20108;-70
2022/04/21 01:58:19;;;;;;;15.00;6.28;;;17.30;77.20;;;;;;5034727;28;20487;-69
2022/04/21 02:00:44;;;;;;;12.25;5.50;;;17.30;77.00;;;;;;5034366;28;20025;-69
2022/04/21 02:03:10;;;;;;;14.45;6.03;;;17.30;76.60;;;;;;5034515;28;20060;-67
2022/04/21 02:05:36;;;;;;;13.13;5.70;;;17.40;76.30;;;;;;5034507;28;20090;-69
2022/04/21 02:08:03;;;;;;;10.55;5.10;;;17.30;75.80;;;;;;5034482;28;20393;-68
2022/04/21 02:10:30;;;;;;;11.68;5.55;;;17.30;75.70;;;;;;5034541;28;20030;-69
2022/04/21 02:12:57;;;;;;;9.95;4.97;;;17.30;75.40;;;;;;5033862;28;20040;-68
2022/04/21 02:15:23;;;;;;;10.48;5.03;;;17.30;75.40;;;;;;5034148;28;20032;-69
2022/04/21 02:17:50;;;;;;;12.50;5.03;;;17.40;75.10;;;;;;5034435;28;20031;-69
2022/04/21 02:20:16;;;;;;;13.77;5.13;;;17.40;74.20;;;;;;5034281;28;20021;-69
2022/04/21 02:22:45;;;;;;;9.38;4.32;;;17.40;74.00;;;;;;5034319;28;20025;-69
2022/04/21 02:25:12;;;;;;;10.13;4.68;;;17.40;74.00;;;;;;5034114;28;20056;-70
2022/04/21 02:27:40;;;;;;;10.30;4.78;;;17.40;73.80;;;;;;5034227;28;20057;-69
2022/04/21 02:30:08;;;;;;;10.90;5.00;;;17.40;73.60;;;;;;5033802;28;20032;-68
2022/04/21 02:32:35;;;;;;;8.90;4.40;;;17.40;73.30;;;;;;5033856;28;20497;-69
2022/04/21 02:35:01;;;;;;;12.43;4.90;;;17.40;73.50;;;;;;5033847;28;20105;-69
2022/04/21 02:37:26;;;;;;;13.32;4.55;;;17.40;73.40;;;;;;5033958;28;20080;-68
2022/04/21 02:39:52;;;;;;;11.60;4.00;;;17.40;73.20;;;;;;5033995;28;20408;-69
2022/04/21 02:42:21;;;;;;;7.93;4.13;;;17.40;73.10;;;;;;5033905;28;20044;-68
2022/04/21 02:44:48;;;;;;;10.07;3.92;;;17.40;73.50;;;;;;5033576;28;20054;-68
2022/04/21 02:47:14;;;;;;;9.82;4.40;;;17.40;73.30;;;;;;5033677;28;20029;-69
2022/04/21 02:49:45;;;;;;;8.25;3.33;;;17.30;73.30;;;;;;5033631;28;20053;-69
2022/04/21 02:52:12;;;;;;;8.27;3.75;;;17.30;73.10;;;;;;5033414;28;20463;-69
2022/04/21 02:57:26;;;;;;;9.30;3.90;;;17.30;73.10;;;;;;5034166;28;20043;-70
2022/04/21 02:59:55;;;;;;;7.63;4.32;;;17.20;74.10;;;;;;5033542;28;20021;-68
2022/04/21 03:02:22;;;;;;;7.15;3.83;;;17.20;74.00;;;;;;5033661;28;20025;-69
2022/04/21 03:04:49;;;;;;;8.35;4.20;;;17.10;74.60;;;;;;5033455;28;20030;-68
2022/04/21 03:07:17;;;;;;;9.68;4.47;;;17.00;75.00;;;;;;5033408;28;20378;-70
2022/04/21 03:09:43;;;;;;;10.35;4.28;;;17.10;75.00;;;;;;5033662;28;20040;-70
2022/04/21 03:12:10;;;;;;;9.70;4.38;;;17.10;75.40;;;;;;5033226;28;20041;-71
2022/04/21 03:14:40;;;;;;;6.65;3.85;;;17.10;75.20;;;;;;5033175;28;20037;-70
2022/04/21 03:17:07;;;;;;;9.90;4.18;;;17.00;74.80;;;;;;5033618;28;20029;-69
2022/04/21 03:19:33;;;;;;;10.02;4.20;;;17.00;75.10;;;;;;5033477;28;20030;-70
2022/04/21 03:24:43;;;;;;;8.40;3.90;;;17.00;75.40;;;;;;5032489;28;20031;-71
2022/04/21 03:27:09;;;;;;;8.63;4.28;;;17.00;74.90;;;;;;5033108;28;20034;-70
2022/04/21 03:29:37;;;;;;;7.53;4.43;;;17.00;75.20;;;;;;5033322;28;20024;-69
2022/04/21 03:32:09;;;;;;;9.85;4.43;;;16.90;75.40;;;;;;5033232;28;20037;-68
2022/04/21 03:34:36;;;;;;;8.55;3.92;;;16.90;75.70;;;;;;5032888;28;20108;-71
2022/04/21 03:37:02;;;;;;;8.73;3.92;;;16.80;75.90;;;;;;5032994;28;20026;-69
2022/04/21 03:39:28;;;;;;;9.25;4.40;;;16.80;76.30;;;;;;5015747;28;20065;-68
2022/04/21 03:41:54;;;;;;;8.25;3.97;;;16.70;76.30;;;;;;5015614;28;20053;-70
2022/04/21 03:44:21;;;;;;;8.00;4.30;;;16.70;76.40;;;;;;5032656;28;20032;-69
2022/04/21 03:46:47;;;;;;;14.88;4.57;;;16.70;76.60;;;;;;5032831;28;20049;-69
2022/04/21 03:49:13;;;;;;;10.57;4.80;;;16.80;76.60;;;;;;5032929;28;20036;-69
2022/04/21 03:51:38;;;;;;;6.53;4.25;;;16.80;76.80;;;;;;5033087;28;20038;-69
2022/04/21 03:54:04;;;;;;;7.80;4.90;;;16.80;76.90;;;;;;5032910;28;20123;-69
2022/04/21 03:56:33;;;;;;;12.63;4.65;;;16.80;76.80;;;;;;5033260;28;20051;-69
2022/04/21 03:58:59;;;;;;;9.68;4.28;;;16.80;77.40;;;;;;5032842;28;20375;-69
2022/04/21 04:01:24;;;;;;;10.40;4.38;;;16.80;77.00;;;;;;5033038;28;20030;-69
2022/04/21 04:03:51;;;;;;;8.60;4.88;;;16.70;77.00;;;;;;5032860;28;20029;-69
2022/04/21 04:11:46;;;;;;;10.52;4.60;;;16.60;77.80;;;;;;5033204;28;20370;-69
2022/04/21 04:14:12;;;;;;;9.23;4.50;;;16.60;78.10;;;;;;5032555;28;20037;-69
2022/04/21 04:16:38;;;;;;;7.28;4.22;;;16.60;77.70;;;;;;5033033;28;20026;-69
2022/04/21 04:19:05;;;;;;;12.45;4.32;;;16.60;77.60;;;;;;5033030;28;20033;-70
2022/04/21 04:21:34;;;;;;;10.45;4.57;;;16.70;77.40;;;;;;5032809;28;20154;-69
2022/04/21 04:24:00;;;;;;;8.80;4.30;;;16.70;77.70;;;;;;5032652;28;20160;-69
2022/04/21 04:26:26;;;;;;;8.35;4.35;;;16.70;77.60;;;;;;5032678;28;20021;-69
2022/04/21 04:28:52;;;;;;;9.50;4.10;;;16.70;77.20;;;;;;5032858;28;20076;-69
2022/04/21 04:31:18;;;;;;;12.00;4.93;;;16.70;77.40;;;;;;5033499;28;20033;-69
2022/04/21 04:33:44;;;;;;;13.40;4.47;;;16.70;77.00;;;;;;5032728;28;20032;-71
2022/04/21 04:36:10;;;;;;;8.65;4.60;;;16.70;76.90;;;;;;5035085;28;20029;-69
2022/04/21 04:38:37;;;;;;;9.35;4.55;;;16.80;76.70;;;;;;5036151;28;20029;-69
2022/04/21 04:43:51;;;;;;;13.35;4.53;;;16.80;76.10;;;;;;5005512;28;20029;-69
2022/04/21 04:46:37;;;;;;;15.20;4.90;;;16.90;76.10;;;;;;5035992;28;20041;-69
2022/04/21 04:49:06;;;;;;;10.40;4.05;;;16.90;76.30;;;;;;5035904;28;20088;-70
2022/04/21 04:51:33;;;;;;;8.30;3.78;;;16.90;74.90;;;;;;5035697;28;20030;-69
2022/04/21 04:53:59;;;;;;;12.20;3.97;;;16.90;74.20;;;;;;5051053;28;20025;-70
2022/04/21 04:56:27;;;;;;;8.18;4.25;;;17.00;74.10;;;;;;5035671;28;20032;-71
2022/04/21 04:58:53;;;;;;;14.40;4.38;;;17.00;73.70;;;;;;5035772;28;20372;-71
2022/04/21 05:01:30;;;;;;;9.27;3.90;;;17.00;73.60;;;;;;5035980;28;20036;-69
2022/04/21 05:04:10;;;;;;;11.90;4.60;;;17.00;73.40;;;;;;5035612;28;20119;-70
2022/04/21 05:06:41;;;;;;;10.90;4.15;;;17.00;74.60;;;;;;5035696;28;20112;-69
2022/04/21 05:09:09;;;;;;;9.23;3.95;;;17.00;75.30;;;;;;5035443;28;20485;-71
2022/04/21 05:11:36;;;;;;;11.02;4.30;;;16.90;74.80;;;;;;5035373;28;20061;-70
2022/04/21 05:14:02;;;;;;;8.48;3.90;;;17.00;75.10;;;;;;5035368;28;20040;-71
2022/04/21 05:16:28;;;;;;;10.50;4.05;;;16.90;75.70;;;;;;5035572;28;20393;-70
2022/04/21 05:18:55;;;;;;;13.75;4.93;;;16.90;75.70;;;;;;5035498;28;20025;-69
2022/04/21 05:21:21;;;;;;;9.80;4.53;;;16.90;75.90;;;;;;5035506;28;20021;-69
2022/04/21 05:23:47;;;;;;;12.90;4.50;;;16.90;76.00;;;;;;5035352;28;20041;-68
2022/04/21 05:26:17;;;;;;;12.50;4.82;;;16.90;76.00;;;;;;5035235;28;20029;-69
2022/04/21 05:28:44;;;;;;;12.43;5.13;;;16.90;76.70;;;;;;5035552;28;20092;-70
2022/04/21 05:31:10;;;;;;;12.23;4.05;;;16.90;75.90;;;;;;5035262;28;20109;-70
2022/04/21 05:33:45;;;;;;;15.90;4.68;;;16.90;76.00;;;;;;5035473;28;20026;-68
2022/04/21 05:36:11;;;;;;;12.27;4.30;;;16.90;76.10;;;;;;5035528;28;20013;-70
2022/04/21 05:38:37;;;;;;;14.68;4.30;;;17.00;76.00;;;;;;5035256;28;20022;-69
2022/04/21 05:41:04;;;;;;;15.80;5.05;;;17.00;75.90;;;;;;5035097;28;20057;-69
2022/04/21 05:43:45;;;;;;;10.52;4.28;;;17.00;75.60;;;;;;5035004;28;20068;-70
2022/04/21 05:46:15;;;;;;;18.85;5.47;;;17.00;75.90;;;;;;5034440;28;20053;-69
2022/04/21 05:48:42;;;;;;;13.63;4.05;;;17.10;74.90;;;;;;5034111;28;20025;-69
2022/04/21 05:51:09;;;;;;;9.73;3.33;;;17.10;74.30;;;;;;5034619;28;20041;-70
2022/04/21 05:53:37;;;;;;;9.35;3.92;;;17.20;73.50;;;;;;5034780;28;20022;-69
2022/04/21 05:56:08;;;;;;;10.65;4.22;;;17.20;72.90;;;;;;5034591;28;20026;-69
2022/04/21 05:58:36;;;;;;;10.13;4.32;;;17.30;72.60;;;;;;5034826;28;20025;-69
2022/04/21 06:01:08;;;;;;;13.07;4.03;;;17.30;71.90;;;;;;5034571;28;20033;-70
2022/04/21 06:03:38;;;;;;;13.10;3.97;;;17.30;71.70;;;;;;5034658;28;20489;-70
2022/04/21 06:06:06;;;;;;;17.23;4.75;;;17.40;71.80;;;;;;5034605;28;20112;-71
2022/04/21 06:08:32;;;;;;;24.63;5.60;;;17.40;71.80;;;;;;5034193;28;20069;-68
2022/04/21 06:10:59;;;;;;;16.83;4.95;;;17.40;72.00;;;;;;5034374;28;20081;-70
2022/04/21 06:13:25;;;;;;;17.45;5.45;;;17.40;72.40;;;;;;5034482;28;20459;-71
2022/04/21 06:15:51;;;;;;;15.35;4.40;;;17.50;72.20;;;;;;5034020;28;20105;-69
2022/04/21 06:18:18;;;;;;;13.98;4.95;;;17.50;72.60;;;;;;5034006;28;20017;-71
2022/04/21 06:20:46;;;;;;;17.90;5.00;;;17.50;72.00;;;;;;5033615;28;20034;-69
2022/04/21 06:23:12;;;;;;;18.40;4.57;;;17.50;72.10;;;;;;5034167;28;20045;-70
2022/04/21 06:25:38;;;;;;;24.67;6.13;;;17.60;72.20;;;;;;5033676;28;20550;-69
2022/04/21 06:28:04;;;;;;;12.73;5.25;;;17.60;72.20;;;;;;5033558;28;20105;-70
2022/04/21 06:30:31;;;;;;;12.27;4.68;;;17.60;72.60;;;;;;5033715;28;20021;-70
2022/04/21 06:32:59;;;;;;;12.55;4.40;;;17.60;72.70;;;;;;5015895;28;20029;-68
2022/04/21 06:35:25;;;;;;;21.52;5.55;;;17.60;73.00;;;;;;5033645;28;20021;-70
2022/04/21 06:37:52;;;;;;;21.98;5.20;;;17.50;73.20;;;;;;5033618;28;20029;-70
2022/04/21 06:40:18;;;;;;;14.30;6.32;;;17.60;73.60;;;;;;5033756;28;20021;-70
2022/04/21 06:42:44;;;;;;;11.82;4.80;;;17.60;73.80;;;;;;5033375;28;20036;-69
2022/04/21 06:48:03;;;;;;;13.70;5.10;;;17.70;73.70;;;;;;5033671;28;20543;-71
2022/04/21 06:50:34;;;;;;;15.57;6.10;;;17.60;73.70;;;;;;5032807;28;20047;-71
2022/04/21 06:53:07;;;;;;;16.67;4.93;;;17.70;74.00;;;;;;5033332;28;20030;-69
2022/04/21 06:55:33;;;;;;;;;;;17.70;75.10;;;;;;5033428;28;20554;-69
2022/04/21 06:58:00;;;;;;;16.15;4.60;;;17.80;74.30;;;;;;5033167;28;19995;-69
2022/04/21 07:00:26;;;;;;;21.55;5.38;;;17.80;73.40;;;;;;5033251;28;20060;-68
2022/04/21 07:02:56;;;;;;;16.58;4.13;;;18.00;73.40;;;;;;5033053;28;20017;-70
2022/04/21 07:05:27;;;;;;;11.48;4.93;;;18.10;73.50;;;;;;5048416;28;20140;-70
2022/04/21 07:07:53;;;;;;;16.63;4.88;;;18.30;72.10;;;;;;5033358;28;20029;-71
2022/04/21 07:10:20;;;;;;;13.00;4.85;;;18.50;71.10;;;;;;5032974;28;20025;-71
2022/04/21 07:12:46;;;;;;;12.63;4.30;;;18.60;70.80;;;;;;5033392;28;20029;-69
2022/04/21 07:15:14;;;;;;;16.50;5.25;;;18.70;70.40;;;;;;5032718;28;20057;-70
2022/04/21 07:17:40;;;;;;;13.70;4.75;;;18.70;70.30;;;;;;5032980;28;20545;-70
2022/04/21 07:20:08;;;;;;;21.80;5.10;;;18.90;70.20;;;;;;5015277;28;20113;-70
2022/04/21 07:22:34;;;;;;;13.88;4.82;;;18.90;70.20;;;;;;5014855;28;20439;-69
2022/04/21 07:25:03;;;;;;;16.15;4.60;;;18.90;69.80;;;;;;5032827;28;20116;-70
2022/04/21 07:27:28;;;;;;;24.05;5.20;;;18.90;69.60;;;;;;5032473;28;20063;-70
2022/04/21 07:29:54;;;;;;;12.73;4.63;;;18.90;70.10;;;;;;5032487;28;20108;-70
2022/04/21 07:32:20;;;;;;;18.35;4.60;;;18.90;69.60;;;;;;5032556;28;20037;-72
2022/04/21 07:34:46;;;;;;;20.77;4.72;;;19.00;69.90;;;;;;5032781;28;20136;-70
2022/04/21 07:37:11;;;;;;;13.60;5.13;;;18.90;69.40;;;;;;5032721;28;20471;-68
2022/04/21 07:39:38;;;;;;;20.52;4.40;;;18.90;69.80;;;;;;5032976;28;20026;-71
2022/04/21 07:42:05;;;;;;;17.50;4.68;;;18.90;69.20;;;;;;5032688;28;20112;-71
2022/04/21 07:44:31;;;;;;;13.70;4.30;;;18.90;69.10;;;;;;5032274;28;20122;-71
2022/04/21 07:46:57;;;;;;;15.60;4.50;;;19.00;69.60;;;;;;5032831;28;20494;-71
2022/04/21 07:54:51;;;;;;;14.38;4.72;;;18.90;69.00;;;;;;5032487;28;19916;-72
2022/04/21 07:57:17;;;;;;;18.08;4.53;;;18.80;69.30;;;;;;5032723;28;20030;-70
2022/04/21 07:59:43;;;;;;;20.48;5.15;;;18.90;69.30;;;;;;5032481;28;20022;-70
2022/04/21 08:02:08;;;;;;;18.35;4.80;;;19.00;69.00;;;;;;5032541;28;20331;-70
2022/04/21 08:04:37;;;;;;;22.15;5.95;;;19.00;68.90;;;;;;5032588;28;20036;-71
2022/04/21 08:07:04;;;;;;;15.13;4.80;;;19.10;68.90;;;;;;5032748;28;20076;-69
2022/04/21 08:09:30;;;;;;;16.92;5.03;;;19.10;68.40;;;;;;5032801;28;20033;-71
2022/04/21 08:11:56;;;;;;;16.42;5.05;;;19.20;68.20;;;;;;5036118;28;20121;-69
2022/04/21 08:14:23;;;;;;;17.60;5.15;;;19.30;68.00;;;;;;5036574;28;20071;-70
2022/04/21 08:16:48;;;;;;;19.73;5.32;;;19.30;67.70;;;;;;5036331;28;20028;-69
2022/04/21 08:19:14;;;;;;;26.88;5.15;;;19.40;67.80;;;;;;5036387;28;20033;-69
2022/04/21 08:21:42;;;;;;;17.63;5.80;;;19.30;68.20;;;;;;5036387;28;20026;-69
2022/04/21 08:32:43;;;;;;;;;;;19.10;67.90;;;;;;5036442;28;20053;-70
2022/04/21 08:35:09;;;;;;;22.63;6.63;;;19.10;68.40;;;;;;5036323;28;20014;-70
2022/04/21 08:37:36;;;;;;;18.73;5.78;;;19.10;69.20;;;;;;5035916;28;20433;-70
2022/04/21 08:40:06;;;;;;;25.67;6.18;;;19.10;69.20;;;;;;5035894;28;20017;-70
2022/04/21 08:42:38;;;;;;;18.58;6.22;;;19.10;69.10;;;;;;5035759;28;20025;-68
2022/04/21 08:45:05;;;;;;;22.58;6.40;;;19.10;69.60;;;;;;5035220;28;20057;-69
2022/04/21 08:47:32;;;;;;;27.40;6.47;;;19.10;69.30;;;;;;5035859;28;20355;-69
2022/04/21 08:50:07;;;;;;;22.15;6.45;;;19.20;69.30;;;;;;5035031;28;20077;-70
2022/04/21 08:52:34;;;;;;;21.80;5.80;;;19.30;69.30;;;;;;5035207;28;20371;-72
2022/04/21 08:55:01;;;;;;;27.95;6.70;;;19.20;69.50;;;;;;5017488;28;20083;-72
2022/04/21 08:57:29;;;;;;;21.92;5.78;;;19.20;70.10;;;;;;5035637;28;20425;-72
2022/04/21 08:59:56;;;;;;;21.13;6.15;;;19.30;69.40;;;;;;5035395;28;20339;-72
2022/04/21 09:02:32;;;;;;;23.77;5.93;;;19.30;68.80;;;;;;5035173;28;20482;-71
2022/04/21 09:04:58;;;;;;;18.35;5.65;;;19.30;69.60;;;;;;5035259;28;20100;-73
2022/04/21 09:07:24;;;;;;;25.85;7.18;;;19.30;69.60;;;;;;5035398;28;20064;-71
2022/04/21 09:10:07;;;;;;;32.35;7.40;;;19.30;69.70;;;;;;5035144;28;20025;-72
2022/04/21 09:12:36;;;;;;;35.67;7.38;;;19.40;68.50;;;;;;5034881;28;20065;-72
2022/04/21 09:15:06;;;;;;;84.00;12.90;;;19.40;69.90;;;;;;5034863;28;20049;-73
2022/04/21 09:17:57;;;;;;;61.53;9.18;;;19.40;69.70;;;;;;5035201;28;20030;-72
2022/04/21 09:20:26;;;;;;;44.45;9.18;;;19.40;70.20;;;;;;5016847;28;20037;-83
2022/04/21 09:22:59;;;;;;;40.50;8.05;;;19.40;70.90;;;;;;5033703;28;20033;-75
2022/04/21 09:25:31;;;;;;;57.47;11.05;;;19.50;70.70;;;;;;5035017;28;20037;-75
2022/04/21 09:27:57;;;;;;;86.72;11.98;;;19.60;70.50;;;;;;5034802;28;20352;-74
2022/04/21 09:30:24;;;;;;;65.22;8.30;;;19.70;70.40;;;;;;5034823;28;20351;-80
2022/04/21 09:32:56;;;;;;;27.33;6.80;;;19.80;69.80;;;;;;5034840;28;20036;-75
2022/04/21 09:35:27;;;;;;;39.55;6.65;;;19.90;67.80;;;;;;5016659;28;20033;-75
2022/04/21 09:37:58;;;;;;;32.60;6.78;;;19.90;67.30;;;;;;5034494;28;20037;-77
2022/04/21 09:40:26;;;;;;;18.63;5.57;;;19.90;68.70;;;;;;5034762;28;20025;-77
2022/04/21 09:43:00;;;;;;;42.13;7.25;;;19.90;68.50;;;;;;5034640;28;20029;-74
2022/04/21 09:48:29;;;;;;;29.10;6.35;;;19.90;67.80;;;;;;5034716;28;20124;-72
2022/04/21 09:51:17;;;;;;;45.10;6.90;;;19.90;66.90;;;;;;5034769;28;20147;-70
2022/04/21 09:53:58;;;;;;;33.47;5.72;;;20.00;65.00;;;;;;5034205;28;20041;-71
2022/04/21 09:56:40;;;;;;;27.55;6.57;;;20.00;66.60;;;;;;5034199;28;20025;-71
2022/04/21 09:59:13;;;;;;;35.22;7.00;;;20.00;66.20;;;;;;5034185;28;20112;-72
2022/04/21 10:01:42;;;;;;;31.30;6.05;;;20.00;66.50;;;;;;5034209;28;20030;-71
2022/04/21 10:04:13;;;;;;;25.65;6.25;;;19.90;67.60;;;;;;5034101;28;20040;-74
2022/04/21 10:06:42;;;;;;;26.17;6.43;;;19.90;69.40;;;;;;5033652;28;20025;-74
2022/04/21 10:09:10;;;;;;;21.10;6.53;;;19.90;69.80;;;;;;5033936;28;20026;-76
2022/04/21 10:11:41;;;;;;;19.42;5.18;;;19.90;70.50;;;;;;5034003;28;20108;-71
2022/04/21 10:14:08;;;;;;;24.58;6.63;;;19.90;71.50;;;;;;5033941;28;20022;-70
2022/04/21 10:16:34;;;;;;;21.50;6.40;;;19.90;71.40;;;;;;5033904;28;20386;-72
2022/04/21 10:19:01;;;;;;;23.17;6.25;;;20.00;70.90;;;;;;5033596;28;20029;-72
2022/04/21 10:21:56;;;;;;;23.25;5.97;;;20.00;70.50;;;;;;5033521;28;20032;-74
2022/04/21 10:24:23;;;;;;;21.67;6.38;;;20.10;68.00;;;;;;5033230;28;20100;-71
2022/04/21 10:26:50;;;;;;;25.67;6.50;;;20.20;69.20;;;;;;5015741;28;20041;-69
2022/04/21 10:29:22;;;;;;;20.35;6.60;;;20.30;66.80;;;;;;5033294;28;20075;-70
2022/04/21 10:32:03;;;;;;;31.75;7.15;;;20.40;68.50;;;;;;5033607;28;20033;-70
2022/04/21 10:34:38;;;;;;;23.52;6.63;;;20.50;68.50;;;;;;5033066;28;20562;-71
2022/04/21 10:37:11;;;;;;;25.55;6.82;;;20.60;66.20;;;;;;5033303;28;20459;-70
2022/04/21 10:39:58;;;;;;;25.05;7.50;;;20.70;68.50;;;;;;5033487;28;20053;-70
2022/04/21 10:42:24;;;;;;;21.23;6.93;;;20.70;68.80;;;;;;5015155;28;20028;-69
2022/04/21 10:44:52;;;;;;;33.80;7.20;;;20.70;67.20;;;;;;5034104;28;20124;-69
2022/04/21 10:47:36;;;;;;;28.25;7.18;;;20.60;70.20;;;;;;5035083;28;20025;-71
2022/04/21 10:50:10;;;;;;;23.65;6.63;;;20.60;68.50;;;;;;5023995;28;20051;-70
2022/04/21 10:57:58;;;;;;;22.45;6.22;;;20.60;68.40;;;;;;5034121;28;19965;-71
2022/04/21 11:00:27;;;;;;;42.83;6.82;;;20.60;70.10;;;;;;5000281;28;20026;-71
2022/04/21 11:03:07;;;;;;;23.13;7.63;;;20.50;68.30;;;;;;5033883;28;20080;-70
2022/04/21 11:05:34;;;;;;;23.42;8.15;;;20.50;71.30;;;;;;5033361;28;20095;-72
2022/04/21 11:08:12;;;;;;;28.23;8.13;;;20.50;70.60;;;;;;5033593;28;20167;-69
2022/04/21 11:10:45;;;;;;;26.42;7.35;;;20.50;69.10;;;;;;5032899;28;20025;-69
2022/04/21 11:13:13;;;;;;;21.80;7.00;;;20.60;71.10;;;;;;5033712;28;20022;-70
2022/04/21 11:15:45;;;;;;;27.15;7.18;;;20.70;71.00;;;;;;5015843;28;20029;-71
2022/04/21 11:18:18;;;;;;;23.50;6.53;;;20.70;70.00;;;;;;5015828;28;20036;-68
2022/04/21 11:20:47;;;;;;;22.20;5.97;;;20.80;69.90;;;;;;5015521;28;20025;-75
2022/04/21 11:23:44;;;;;;;24.35;6.65;;;20.90;70.00;;;;;;5033571;28;20094;-73
2022/04/21 11:26:11;;;;;;;18.67;6.50;;;20.90;68.70;;;;;;5033543;28;20049;-71
2022/04/21 11:28:46;;;;;;;21.73;6.82;;;20.90;70.60;;;;;;5033288;28;20029;-73
2022/04/21 11:31:13;;;;;;;24.48;6.60;;;21.00;70.10;;;;;;5033407;28;20037;-71
2022/04/21 11:33:39;;;;;;;21.92;7.63;;;21.00;70.10;;;;;;5015452;28;20056;-72
2022/04/21 11:36:06;;;;;;;19.00;5.47;;;21.00;69.90;;;;;;5033697;28;20540;-71
2022/04/21 11:38:33;;;;;;;18.75;5.70;;;21.00;69.90;;;;;;5033241;28;20022;-74
2022/04/21 11:41:05;;;;;;;23.65;6.18;;;20.90;70.20;;;;;;5033683;28;20029;-73
2022/04/21 11:43:32;;;;;;;21.55;6.15;;;20.90;70.40;;;;;;5015672;28;20033;-73
2022/04/21 11:46:03;;;;;;;21.98;6.72;;;20.90;70.90;;;;;;5035335;28;20502;-72
2022/04/21 11:48:37;;;;;;;18.73;5.63;;;20.90;69.10;;;;;;5019652;28;20036;-72
2022/04/21 11:51:04;;;;;;;23.83;6.18;;;20.90;69.60;;;;;;5037798;28;20064;-71
2022/04/21 11:53:36;;;;;;;23.13;5.90;;;20.80;71.50;;;;;;5037494;28;20029;-71
2022/04/21 11:56:06;;;;;;;20.30;6.57;;;20.90;70.60;;;;;;5019741;28;20392;-73
2022/04/21 11:58:41;;;;;;;20.25;6.07;;;20.80;68.20;;;;;;5037500;28;20031;-71
2022/04/21 12:06:53;;;;;;;35.42;6.43;;;20.80;67.90;;;;;;5037634;28;20048;-70
2022/04/21 12:09:20;;;;;;;31.58;7.53;;;20.80;70.20;;;;;;5037067;28;20030;-71
2022/04/21 12:11:49;;;;;;;29.70;6.50;;;20.80;69.90;;;;;;5036977;28;20030;-72
2022/04/21 12:14:16;;;;;;;22.92;6.32;;;20.80;69.60;;;;;;5019088;28;20025;-70
2022/04/21 12:16:47;;;;;;;22.75;5.88;;;20.80;69.40;;;;;;5019520;28;20026;-72
2022/04/21 12:19:17;;;;;;;25.75;6.40;;;20.80;67.20;;;;;;5036758;28;20059;-71
2022/04/21 12:21:45;;;;;;;32.35;7.03;;;20.80;67.20;;;;;;5018909;28;20037;-71
2022/04/21 12:24:11;;;;;;;20.13;6.10;;;20.90;69.20;;;;;;5019284;28;20108;-72
2022/04/21 12:26:37;;;;;;;22.98;6.13;;;21.00;69.00;;;;;;5036849;28;20104;-70
2022/04/21 12:29:07;;;;;;;22.13;6.45;;;21.10;69.50;;;;;;5018883;28;20057;-72
2022/04/21 12:32:05;;;;;;;21.80;5.53;;;21.10;69.70;;;;;;5036691;28;20121;-72
2022/04/21 12:34:38;;;;;;;21.58;6.03;;;21.00;68.40;;;;;;5028913;28;20053;-71
2022/04/21 12:37:06;;;;;;;21.98;5.82;;;21.00;70.00;;;;;;5037287;28;20159;-71
2022/04/21 12:39:32;;;;;;;22.35;6.32;;;21.00;69.70;;;;;;5018709;28;20104;-71
2022/04/21 12:42:00;;;;;;;25.02;6.50;;;21.00;69.90;;;;;;5036648;28;20025;-70
2022/04/21 12:44:25;;;;;;;24.85;6.72;;;21.00;70.50;;;;;;5036383;28;20032;-71
2022/04/21 12:47:00;;;;;;;26.60;6.50;;;21.00;70.40;;;;;;5018893;28;20527;-71
2022/04/21 12:49:58;;;;;;;20.20;5.97;;;21.00;71.00;;;;;;5018364;28;20082;-72
2022/04/21 12:52:40;;;;;;;19.23;5.70;;;21.10;68.80;;;;;;5036356;28;20367;-71
2022/04/21 12:55:09;;;;;;;19.10;5.72;;;21.10;68.90;;;;;;5036169;28;20021;-72
2022/04/21 12:57:36;;;;;;;21.27;6.15;;;21.10;70.40;;;;;;5035876;28;20466;-72
2022/04/21 13:00:10;;;;;;;21.38;5.18;;;21.10;70.90;;;;;;5036260;28;20021;-72
2022/04/21 13:02:36;;;;;;;22.52;5.72;;;21.10;68.00;;;;;;5036148;28;20032;-72
2022/04/21 13:05:03;;;;;;;21.23;5.82;;;21.20;67.50;;;;;;5035956;28;20024;-73
2022/04/21 13:07:29;;;;;;;19.77;4.90;;;21.20;66.50;;;;;;5036042;28;20036;-75
2022/04/21 13:09:55;;;;;;;23.33;6.30;;;21.20;65.80;;;;;;5018104;28;20026;-73
2022/04/21 13:12:21;;;;;;;27.50;6.82;;;21.20;66.00;;;;;;5035967;28;20112;-75
2022/04/21 13:14:46;;;;;;;18.92;5.55;;;21.20;66.10;;;;;;5035925;28;20104;-72
2022/04/21 13:17:12;;;;;;;23.85;5.18;;;21.10;65.40;;;;;;5035813;28;20033;-76
2022/04/21 13:19:38;;;;;;;22.02;4.70;;;21.10;65.20;;;;;;5035465;28;20047;-72
2022/04/21 13:22:05;;;;;;;18.30;3.97;;;21.00;61.00;;;;;;5035480;28;20021;-73
2022/04/21 13:24:32;;;;;;;22.92;4.10;;;21.00;57.40;;;;;;5035371;28;20100;-71
2022/04/21 13:27:00;;;;;;;16.63;4.18;;;21.00;55.70;;;;;;5017792;28;20482;-73
2022/04/21 13:29:29;;;;;;;20.25;4.10;;;20.90;55.00;;;;;;5017822;28;20021;-71
2022/04/21 13:34:39;;;;;;;;;;;20.90;53.60;;;;;;5036062;28;20068;-71
2022/04/21 13:37:05;;;;;;;19.77;4.43;;;20.80;50.80;;;;;;5035852;28;19901;-72
2022/04/21 13:39:34;;;;;;;17.42;4.32;;;20.80;53.50;;;;;;5035963;28;20031;-72